sensor_id;sensor_type;location;lat;lon;timestamp;P1;durP1;ratioP1;P2;durP2;ratioP2
5702;SDS011;2876;51.738;10.050;2023-07-20T00:02:50;10.87;;;7.73;;
5702;SDS011;2876;51.738;10.050;2023-07-20T00:08:53;17.37;;;7.90;;
5702;SDS011;2876;51.738;10.050;2023-07-20T00:15:00;11.57;;;7.87;;
5702;SDS011;2876;51.738;10.050;2023-07-20T00:21:02;9.03;;;7.70;;
5702;SDS011;2876;51.738;10.050;2023-07-20T00:27:05;13.67;;;9.00;;
5702;SDS011;2876;51.738;10.050;2023-07-20T00:33:09;11.53;;;7.00;;
5702;SDS011;2876;51.738;10.050;2023-07-20T00:39:12;12.73;;;8.13;;
5702;SDS011;2876;51.738;10.050;2023-07-20T00:45:14;8.93;;;7.97;;
5702;SDS011;2876;51.738;10.050;2023-07-20T00:51:16;10.90;;;6.67;;
5702;SDS011;2876;51.738;10.050;2023-07-20T00:57:19;8.37;;;6.93;;
5702;SDS011;2876;51.738;10.050;2023-07-20T01:03:21;7.23;;;6.10;;
5702;SDS011;2876;51.738;10.050;2023-07-20T01:15:56;10.33;;;6.03;;
5702;SDS011;2876;51.738;10.050;2023-07-20T01:35:16;8.63;;;6.43;;
5702;SDS011;2876;51.738;10.050;2023-07-20T01:41:21;12.50;;;6.97;;
5702;SDS011;2876;51.738;10.050;2023-07-20T01:47:23;7.30;;;6.60;;
5702;SDS011;2876;51.738;10.050;2023-07-20T01:53:25;9.60;;;7.10;;
5702;SDS011;2876;51.738;10.050;2023-07-20T01:59:27;11.37;;;6.50;;
5702;SDS011;2876;51.738;10.050;2023-07-20T02:05:29;6.97;;;6.23;;
5702;SDS011;2876;51.738;10.050;2023-07-20T02:11:31;8.37;;;6.87;;
5702;SDS011;2876;51.738;10.050;2023-07-20T02:17:33;9.87;;;7.80;;
5702;SDS011;2876;51.738;10.050;2023-07-20T02:23:35;6.53;;;5.30;;
5702;SDS011;2876;51.738;10.050;2023-07-20T02:29:37;7.80;;;5.33;;
5702;SDS011;2876;51.738;10.050;2023-07-20T02:35:40;6.80;;;5.10;;
5702;SDS011;2876;51.738;10.050;2023-07-20T02:41:42;5.50;;;4.40;;
5702;SDS011;2876;51.738;10.050;2023-07-20T02:47:44;6.27;;;4.83;;
5702;SDS011;2876;51.738;10.050;2023-07-20T02:53:46;5.60;;;4.07;;
5702;SDS011;2876;51.738;10.050;2023-07-20T02:59:48;8.53;;;4.23;;
5702;SDS011;2876;51.738;10.050;2023-07-20T03:05:50;4.93;;;4.30;;
5702;SDS011;2876;51.738;10.050;2023-07-20T03:11:55;7.90;;;5.00;;
5702;SDS011;2876;51.738;10.050;2023-07-20T03:17:57;10.00;;;4.80;;
5702;SDS011;2876;51.738;10.050;2023-07-20T03:23:59;6.97;;;5.27;;
5702;SDS011;2876;51.738;10.050;2023-07-20T03:30:02;6.50;;;5.47;;
5702;SDS011;2876;51.738;10.050;2023-07-20T03:36:08;7.70;;;5.40;;
5702;SDS011;2876;51.738;10.050;2023-07-20T03:42:12;7.93;;;6.30;;
5702;SDS011;2876;51.738;10.050;2023-07-20T03:48:17;7.67;;;5.27;;
5702;SDS011;2876;51.738;10.050;2023-07-20T03:54:22;6.20;;;5.60;;
5702;SDS011;2876;51.738;10.050;2023-07-20T04:00:24;7.37;;;5.83;;
5702;SDS011;2876;51.738;10.050;2023-07-20T04:06:26;7.37;;;5.90;;
5702;SDS011;2876;51.738;10.050;2023-07-20T04:12:28;6.50;;;5.83;;
5702;SDS011;2876;51.738;10.050;2023-07-20T04:18:30;6.93;;;5.70;;
5702;SDS011;2876;51.738;10.050;2023-07-20T04:24:32;9.07;;;6.10;;
5702;SDS011;2876;51.738;10.050;2023-07-20T04:30:38;7.53;;;5.70;;
5702;SDS011;2876;51.738;10.050;2023-07-20T04:36:41;6.20;;;5.60;;
5702;SDS011;2876;51.738;10.050;2023-07-20T04:42:43;10.30;;;6.63;;
5702;SDS011;2876;51.738;10.050;2023-07-20T04:48:45;9.40;;;6.93;;
5702;SDS011;2876;51.738;10.050;2023-07-20T04:54:49;8.43;;;6.10;;
5702;SDS011;2876;51.738;10.050;2023-07-20T05:00:51;6.67;;;6.07;;
5702;SDS011;2876;51.738;10.050;2023-07-20T05:06:53;7.47;;;6.13;;
5702;SDS011;2876;51.738;10.050;2023-07-20T05:12:55;7.03;;;6.00;;
5702;SDS011;2876;51.738;10.050;2023-07-20T05:18:57;6.67;;;5.60;;
5702;SDS011;2876;51.738;10.050;2023-07-20T05:24:59;6.73;;;5.80;;
5702;SDS011;2876;51.738;10.050;2023-07-20T05:31:05;8.03;;;6.60;;
5702;SDS011;2876;51.738;10.050;2023-07-20T05:37:07;10.00;;;5.90;;
5702;SDS011;2876;51.738;10.050;2023-07-20T05:43:11;8.43;;;6.37;;
5702;SDS011;2876;51.738;10.050;2023-07-20T05:49:14;5.73;;;5.23;;
5702;SDS011;2876;51.738;10.050;2023-07-20T05:55:16;7.20;;;5.90;;
5702;SDS011;2876;51.738;10.050;2023-07-20T06:01:18;8.27;;;6.30;;
5702;SDS011;2876;51.738;10.050;2023-07-20T06:07:20;7.03;;;6.33;;
5702;SDS011;2876;51.738;10.050;2023-07-20T06:13:22;8.33;;;7.60;;
5702;SDS011;2876;51.738;10.050;2023-07-20T06:19:27;8.70;;;7.80;;
5702;SDS011;2876;51.738;10.050;2023-07-20T06:25:29;9.77;;;8.87;;
5702;SDS011;2876;51.738;10.050;2023-07-20T06:31:32;14.17;;;9.57;;
5702;SDS011;2876;51.738;10.050;2023-07-20T06:37:40;19.40;;;9.40;;
5702;SDS011;2876;51.738;10.050;2023-07-20T06:43:42;11.40;;;10.23;;
5702;SDS011;2876;51.738;10.050;2023-07-20T06:49:47;15.50;;;12.30;;
5702;SDS011;2876;51.738;10.050;2023-07-20T06:55:49;13.63;;;12.23;;
5702;SDS011;2876;51.738;10.050;2023-07-20T07:01:52;8.80;;;6.40;;
5702;SDS011;2876;51.738;10.050;2023-07-20T07:07:57;5.27;;;3.10;;
5702;SDS011;2876;51.738;10.050;2023-07-20T07:13:59;1.87;;;1.40;;
5702;SDS011;2876;51.738;10.050;2023-07-20T07:20:01;1.93;;;1.57;;
5702;SDS011;2876;51.738;10.050;2023-07-20T07:26:05;1.83;;;1.50;;
5702;SDS011;2876;51.738;10.050;2023-07-20T07:32:08;1.97;;;1.60;;
5702;SDS011;2876;51.738;10.050;2023-07-20T07:38:12;2.77;;;1.80;;
5702;SDS011;2876;51.738;10.050;2023-07-20T07:44:19;1.80;;;1.70;;
5702;SDS011;2876;51.738;10.050;2023-07-20T07:50:22;4.20;;;2.30;;
5702;SDS011;2876;51.738;10.050;2023-07-20T07:56:28;2.87;;;2.63;;
5702;SDS011;2876;51.738;10.050;2023-07-20T08:02:30;2.47;;;2.20;;
5702;SDS011;2876;51.738;10.050;2023-07-20T08:08:33;2.40;;;2.20;;
5702;SDS011;2876;51.738;10.050;2023-07-20T08:14:35;2.53;;;2.20;;
5702;SDS011;2876;51.738;10.050;2023-07-20T08:20:39;2.40;;;2.00;;
5702;SDS011;2876;51.738;10.050;2023-07-20T08:26:44;1.90;;;1.70;;
5702;SDS011;2876;51.738;10.050;2023-07-20T08:38:58;2.03;;;1.83;;
5702;SDS011;2876;51.738;10.050;2023-07-20T08:45:00;1.70;;;1.60;;
5702;SDS011;2876;51.738;10.050;2023-07-20T08:51:12;1.87;;;1.77;;
5702;SDS011;2876;51.738;10.050;2023-07-20T08:57:17;2.70;;;2.00;;
5702;SDS011;2876;51.738;10.050;2023-07-20T09:03:22;1.80;;;1.70;;
5702;SDS011;2876;51.738;10.050;2023-07-20T09:09:24;2.20;;;1.87;;
5702;SDS011;2876;51.738;10.050;2023-07-20T09:15:28;2.37;;;2.20;;
5702;SDS011;2876;51.738;10.050;2023-07-20T09:21:44;1.80;;;1.70;;
5702;SDS011;2876;51.738;10.050;2023-07-20T09:27:50;1.50;;;1.40;;
5702;SDS011;2876;51.738;10.050;2023-07-20T09:33:55;1.67;;;1.40;;
5702;SDS011;2876;51.738;10.050;2023-07-20T09:40:00;2.40;;;1.00;;
5702;SDS011;2876;51.738;10.050;2023-07-20T09:46:05;1.10;;;1.00;;
5702;SDS011;2876;51.738;10.050;2023-07-20T09:52:11;1.80;;;1.00;;
5702;SDS011;2876;51.738;10.050;2023-07-20T09:58:15;1.10;;;0.80;;
5702;SDS011;2876;51.738;10.050;2023-07-20T10:04:18;3.17;;;1.20;;
5702;SDS011;2876;51.738;10.050;2023-07-20T10:10:22;5.80;;;1.20;;
5702;SDS011;2876;51.738;10.050;2023-07-20T10:16:28;1.70;;;1.17;;
5702;SDS011;2876;51.738;10.050;2023-07-20T10:22:36;1.20;;;1.10;;
5702;SDS011;2876;51.738;10.050;2023-07-20T10:28:48;1.00;;;0.90;;
5702;SDS011;2876;51.738;10.050;2023-07-20T10:34:52;1.07;;;0.97;;
5702;SDS011;2876;51.738;10.050;2023-07-20T10:40:56;1.30;;;1.00;;
5702;SDS011;2876;51.738;10.050;2023-07-20T10:47:11;1.00;;;0.93;;
5702;SDS011;2876;51.738;10.050;2023-07-20T10:53:15;1.40;;;1.30;;
5702;SDS011;2876;51.738;10.050;2023-07-20T10:59:20;1.07;;;1.03;;
5702;SDS011;2876;51.738;10.050;2023-07-20T11:05:46;1.27;;;1.00;;
5702;SDS011;2876;51.738;10.050;2023-07-20T11:11:50;2.03;;;1.30;;
5702;SDS011;2876;51.738;10.050;2023-07-20T11:18:11;1.73;;;1.00;;
5702;SDS011;2876;51.738;10.050;2023-07-20T11:24:15;1.70;;;1.23;;
5702;SDS011;2876;51.738;10.050;2023-07-20T11:30:17;1.93;;;1.07;;
5702;SDS011;2876;51.738;10.050;2023-07-20T11:36:19;1.53;;;1.30;;
5702;SDS011;2876;51.738;10.050;2023-07-20T11:42:24;1.07;;;1.00;;
5702;SDS011;2876;51.738;10.050;2023-07-20T11:48:29;1.10;;;1.00;;
5702;SDS011;2876;51.738;10.050;2023-07-20T11:54:32;0.90;;;0.90;;
5702;SDS011;2876;51.738;10.050;2023-07-20T12:00:36;1.07;;;0.97;;
5702;SDS011;2876;51.738;10.050;2023-07-20T12:06:40;1.13;;;1.07;;
5702;SDS011;2876;51.738;10.050;2023-07-20T12:12:43;1.00;;;0.90;;
5702;SDS011;2876;51.738;10.050;2023-07-20T12:18:46;1.63;;;1.03;;
5702;SDS011;2876;51.738;10.050;2023-07-20T12:24:51;1.00;;;0.90;;
5702;SDS011;2876;51.738;10.050;2023-07-20T12:30:54;1.30;;;1.00;;
5702;SDS011;2876;51.738;10.050;2023-07-20T12:37:02;1.30;;;1.10;;
5702;SDS011;2876;51.738;10.050;2023-07-20T12:43:05;1.10;;;0.90;;
5702;SDS011;2876;51.738;10.050;2023-07-20T12:49:08;1.50;;;1.07;;
5702;SDS011;2876;51.738;10.050;2023-07-20T12:55:10;0.90;;;0.90;;
5702;SDS011;2876;51.738;10.050;2023-07-20T13:01:15;1.23;;;1.10;;
5702;SDS011;2876;51.738;10.050;2023-07-20T13:07:18;1.00;;;0.90;;
5702;SDS011;2876;51.738;10.050;2023-07-20T13:13:42;1.30;;;0.90;;
5702;SDS011;2876;51.738;10.050;2023-07-20T13:19:44;1.63;;;1.10;;
5702;SDS011;2876;51.738;10.050;2023-07-20T13:25:46;1.50;;;0.87;;
5702;SDS011;2876;51.738;10.050;2023-07-20T13:31:48;1.37;;;0.90;;
5702;SDS011;2876;51.738;10.050;2023-07-20T13:37:52;0.70;;;0.70;;
5702;SDS011;2876;51.738;10.050;2023-07-20T13:43:54;0.87;;;0.77;;
5702;SDS011;2876;51.738;10.050;2023-07-20T13:49:58;0.80;;;0.70;;
5702;SDS011;2876;51.738;10.050;2023-07-20T13:56:03;1.00;;;0.90;;
5702;SDS011;2876;51.738;10.050;2023-07-20T14:02:08;2.30;;;0.80;;
5702;SDS011;2876;51.738;10.050;2023-07-20T14:08:13;0.83;;;0.80;;
5702;SDS011;2876;51.738;10.050;2023-07-20T14:14:15;0.80;;;0.80;;
5702;SDS011;2876;51.738;10.050;2023-07-20T14:20:17;0.90;;;0.90;;
5702;SDS011;2876;51.738;10.050;2023-07-20T14:26:23;2.20;;;0.80;;
5702;SDS011;2876;51.738;10.050;2023-07-20T14:32:25;1.10;;;0.90;;
5702;SDS011;2876;51.738;10.050;2023-07-20T14:38:30;1.70;;;1.00;;
5702;SDS011;2876;51.738;10.050;2023-07-20T14:44:35;2.37;;;1.30;;
5702;SDS011;2876;51.738;10.050;2023-07-20T14:50:38;1.40;;;1.07;;
5702;SDS011;2876;51.738;10.050;2023-07-20T14:56:47;1.83;;;1.17;;
5702;SDS011;2876;51.738;10.050;2023-07-20T15:02:53;0.80;;;0.80;;
5702;SDS011;2876;51.738;10.050;2023-07-20T15:08:57;1.03;;;0.90;;
5702;SDS011;2876;51.738;10.050;2023-07-20T15:15:06;5.60;;;1.73;;
5702;SDS011;2876;51.738;10.050;2023-07-20T15:21:10;2.60;;;0.90;;
5702;SDS011;2876;51.738;10.050;2023-07-20T15:27:13;1.40;;;1.00;;
5702;SDS011;2876;51.738;10.050;2023-07-20T15:33:15;1.13;;;0.93;;
5702;SDS011;2876;51.738;10.050;2023-07-20T15:39:17;1.00;;;0.90;;
5702;SDS011;2876;51.738;10.050;2023-07-20T15:45:19;1.00;;;0.90;;
5702;SDS011;2876;51.738;10.050;2023-07-20T15:51:22;1.00;;;0.90;;
5702;SDS011;2876;51.738;10.050;2023-07-20T15:57:25;2.23;;;0.97;;
5702;SDS011;2876;51.738;10.050;2023-07-20T16:03:27;2.10;;;0.90;;
5702;SDS011;2876;51.738;10.050;2023-07-20T16:09:38;2.30;;;1.00;;
5702;SDS011;2876;51.738;10.050;2023-07-20T16:15:41;1.30;;;1.10;;
5702;SDS011;2876;51.738;10.050;2023-07-20T16:21:46;2.97;;;0.90;;
5702;SDS011;2876;51.738;10.050;2023-07-20T16:27:47;1.87;;;1.10;;
5702;SDS011;2876;51.738;10.050;2023-07-20T16:33:49;2.00;;;1.00;;
5702;SDS011;2876;51.738;10.050;2023-07-20T16:39:52;1.20;;;1.10;;
5702;SDS011;2876;51.738;10.050;2023-07-20T16:46:04;1.20;;;1.10;;
5702;SDS011;2876;51.738;10.050;2023-07-20T16:52:11;1.03;;;0.97;;
5702;SDS011;2876;51.738;10.050;2023-07-20T16:58:13;1.87;;;1.10;;
5702;SDS011;2876;51.738;10.050;2023-07-20T17:04:15;0.93;;;0.90;;
5702;SDS011;2876;51.738;10.050;2023-07-20T17:10:17;2.17;;;1.00;;
5702;SDS011;2876;51.738;10.050;2023-07-20T17:16:20;2.20;;;1.30;;
5702;SDS011;2876;51.738;10.050;2023-07-20T17:22:22;1.17;;;0.93;;
5702;SDS011;2876;51.738;10.050;2023-07-20T17:28:24;1.10;;;1.00;;
5702;SDS011;2876;51.738;10.050;2023-07-20T17:34:31;1.33;;;1.23;;
5702;SDS011;2876;51.738;10.050;2023-07-20T17:40:33;1.10;;;1.00;;
5702;SDS011;2876;51.738;10.050;2023-07-20T17:46:37;4.23;;;1.20;;
5702;SDS011;2876;51.738;10.050;2023-07-20T17:52:43;1.63;;;1.10;;
5702;SDS011;2876;51.738;10.050;2023-07-20T17:58:45;1.00;;;0.90;;
5702;SDS011;2876;51.738;10.050;2023-07-20T18:04:47;1.23;;;1.03;;
5702;SDS011;2876;51.738;10.050;2023-07-20T18:10:49;1.20;;;1.03;;
5702;SDS011;2876;51.738;10.050;2023-07-20T18:16:51;1.47;;;0.90;;
5702;SDS011;2876;51.738;10.050;2023-07-20T18:22:53;2.00;;;1.80;;
5702;SDS011;2876;51.738;10.050;2023-07-20T18:28:55;1.10;;;0.93;;
5702;SDS011;2876;51.738;10.050;2023-07-20T18:34:57;3.50;;;1.10;;
5702;SDS011;2876;51.738;10.050;2023-07-20T18:40:59;2.10;;;1.07;;
5702;SDS011;2876;51.738;10.050;2023-07-20T18:47:01;1.57;;;1.00;;
5702;SDS011;2876;51.738;10.050;2023-07-20T18:53:03;1.13;;;1.03;;
5702;SDS011;2876;51.738;10.050;2023-07-20T18:59:05;1.30;;;1.20;;
5702;SDS011;2876;51.738;10.050;2023-07-20T19:05:07;5.00;;;1.43;;
5702;SDS011;2876;51.738;10.050;2023-07-20T19:11:10;2.13;;;1.37;;
5702;SDS011;2876;51.738;10.050;2023-07-20T19:17:15;2.23;;;1.90;;
5702;SDS011;2876;51.738;10.050;2023-07-20T19:23:17;1.70;;;1.40;;
5702;SDS011;2876;51.738;10.050;2023-07-20T19:29:19;3.87;;;3.00;;
5702;SDS011;2876;51.738;10.050;2023-07-20T19:35:21;4.60;;;1.70;;
5702;SDS011;2876;51.738;10.050;2023-07-20T19:41:23;3.27;;;1.40;;
5702;SDS011;2876;51.738;10.050;2023-07-20T19:47:25;1.80;;;1.47;;
5702;SDS011;2876;51.738;10.050;2023-07-20T19:53:27;2.77;;;1.60;;
5702;SDS011;2876;51.738;10.050;2023-07-20T19:59:31;1.60;;;1.50;;
5702;SDS011;2876;51.738;10.050;2023-07-20T20:05:33;1.50;;;1.40;;
5702;SDS011;2876;51.738;10.050;2023-07-20T20:11:36;8.10;;;1.50;;
5702;SDS011;2876;51.738;10.050;2023-07-20T20:17:38;2.30;;;1.63;;
5702;SDS011;2876;51.738;10.050;2023-07-20T20:23:43;1.90;;;1.63;;
5702;SDS011;2876;51.738;10.050;2023-07-20T20:29:46;2.90;;;1.65;;
5702;SDS011;2876;51.738;10.050;2023-07-20T20:35:48;3.27;;;2.23;;
5702;SDS011;2876;51.738;10.050;2023-07-20T20:41:53;1.60;;;1.50;;
5702;SDS011;2876;51.738;10.050;2023-07-20T20:47:55;2.40;;;1.60;;
5702;SDS011;2876;51.738;10.050;2023-07-20T20:54:00;2.50;;;1.50;;
5702;SDS011;2876;51.738;10.050;2023-07-20T21:00:02;2.37;;;1.67;;
5702;SDS011;2876;51.738;10.050;2023-07-20T21:06:07;2.40;;;1.93;;
5702;SDS011;2876;51.738;10.050;2023-07-20T21:12:09;1.47;;;1.30;;
5702;SDS011;2876;51.738;10.050;2023-07-20T21:18:11;7.70;;;2.40;;
5702;SDS011;2876;51.738;10.050;2023-07-20T21:24:14;2.87;;;1.80;;
5702;SDS011;2876;51.738;10.050;2023-07-20T21:30:16;2.47;;;1.50;;
5702;SDS011;2876;51.738;10.050;2023-07-20T21:36:18;2.43;;;1.53;;
5702;SDS011;2876;51.738;10.050;2023-07-20T21:42:19;3.13;;;1.70;;
5702;SDS011;2876;51.738;10.050;2023-07-20T21:48:21;1.93;;;1.70;;
5702;SDS011;2876;51.738;10.050;2023-07-20T21:54:23;5.60;;;1.80;;
5702;SDS011;2876;51.738;10.050;2023-07-20T22:00:26;2.20;;;1.70;;
5702;SDS011;2876;51.738;10.050;2023-07-20T22:06:28;2.20;;;1.63;;
5702;SDS011;2876;51.738;10.050;2023-07-20T22:12:30;3.23;;;1.63;;
5702;SDS011;2876;51.738;10.050;2023-07-20T22:18:32;2.33;;;1.63;;
5702;SDS011;2876;51.738;10.050;2023-07-20T22:24:37;6.70;;;1.60;;
5702;SDS011;2876;51.738;10.050;2023-07-20T22:30:39;2.50;;;1.70;;
5702;SDS011;2876;51.738;10.050;2023-07-20T22:36:41;2.83;;;1.40;;
5702;SDS011;2876;51.738;10.050;2023-07-20T22:42:43;5.83;;;1.70;;
5702;SDS011;2876;51.738;10.050;2023-07-20T22:48:47;3.13;;;1.93;;
5702;SDS011;2876;51.738;10.050;2023-07-20T22:54:49;4.43;;;1.60;;
5702;SDS011;2876;51.738;10.050;2023-07-20T23:00:51;4.90;;;2.03;;
5702;SDS011;2876;51.738;10.050;2023-07-20T23:06:53;1.50;;;1.40;;
5702;SDS011;2876;51.738;10.050;2023-07-20T23:12:56;3.00;;;1.50;;
5702;SDS011;2876;51.738;10.050;2023-07-20T23:18:58;2.97;;;1.73;;
5702;SDS011;2876;51.738;10.050;2023-07-20T23:25:00;2.30;;;1.70;;
5702;SDS011;2876;51.738;10.050;2023-07-20T23:31:02;1.90;;;1.70;;
5702;SDS011;2876;51.738;10.050;2023-07-20T23:37:04;2.30;;;1.60;;
5702;SDS011;2876;51.738;10.050;2023-07-20T23:43:07;1.60;;;1.50;;
5702;SDS011;2876;51.738;10.050;2023-07-20T23:49:08;10.13;;;1.83;;
5702;SDS011;2876;51.738;10.050;2023-07-20T23:55:11;1.87;;;1.67;;
